createdAt,value
2019-05-22T00:00:19.427Z,99.99
2019-05-22T00:01:19.407Z,99.99
2019-05-22T00:02:19.410Z,99.99
2019-05-22T00:03:19.391Z,99.99
2019-05-22T00:04:19.364Z,99.99
2019-05-22T00:05:19.335Z,99.99
2019-05-22T00:06:19.349Z,99.99
2019-05-22T00:07:19.300Z,99.99
2019-05-22T00:08:19.284Z,99.99
2019-05-22T00:09:19.287Z,99.99
2019-05-22T00:10:19.268Z,99.99
2019-05-22T00:11:19.232Z,99.99
2019-05-22T00:12:19.343Z,99.99
2019-05-22T00:13:19.194Z,99.99
2019-05-22T00:14:24.183Z,99.99
2019-05-22T00:15:19.188Z,99.99
2019-05-22T00:16:19.139Z,99.99
2019-05-22T00:17:19.125Z,99.99
2019-05-22T00:18:19.143Z,99.99
2019-05-22T00:19:19.116Z,99.99
2019-05-22T00:20:19.086Z,99.99
2019-05-22T00:21:19.063Z,99.99
2019-05-22T00:22:19.021Z,99.99
2019-05-22T00:23:19.019Z,99.99
2019-05-22T00:24:19.030Z,99.99
2019-05-22T00:25:19.016Z,99.99
2019-05-22T00:26:18.958Z,99.99
2019-05-22T00:27:18.935Z,99.99
2019-05-22T00:28:18.913Z,99.99
2019-05-22T00:29:18.904Z,99.99
2019-05-22T00:30:18.995Z,99.99
2019-05-22T00:31:18.885Z,99.99
2019-05-22T00:32:18.857Z,99.99
2019-05-22T00:33:18.828Z,99.99
2019-05-22T00:34:18.807Z,99.99
2019-05-22T00:35:18.807Z,99.99
2019-05-22T00:36:18.771Z,99.99
2019-05-22T00:37:18.751Z,99.99
2019-05-22T00:38:18.840Z,99.99
2019-05-22T00:39:18.741Z,99.99
2019-05-22T00:40:18.691Z,99.99
2019-05-22T00:41:18.678Z,99.99
2019-05-22T00:42:18.756Z,99.99
2019-05-22T00:43:18.651Z,99.99
2019-05-22T00:44:18.764Z,99.99
2019-05-22T00:45:18.634Z,99.99
2019-05-22T00:46:18.592Z,99.99
2019-05-22T00:47:18.582Z,99.99
2019-05-22T00:48:18.694Z,99.99
2019-05-22T00:49:18.533Z,99.99
2019-05-22T00:50:18.598Z,99.99
2019-05-22T00:51:18.515Z,99.99
2019-05-22T00:52:18.478Z,99.99
2019-05-22T00:53:18.461Z,99.99
2019-05-22T00:54:18.552Z,99.99
2019-05-22T00:55:18.456Z,99.99
2019-05-22T00:56:18.476Z,99.99
2019-05-22T00:57:18.404Z,99.99
2019-05-22T00:58:18.374Z,99.99
2019-05-22T00:59:18.351Z,99.99
2019-05-22T01:00:18.331Z,99.99
2019-05-22T01:01:18.313Z,99.99
2019-05-22T01:02:18.421Z,99.99
2019-05-22T01:03:18.274Z,99.99
2019-05-22T01:04:18.258Z,99.99
2019-05-22T01:05:18.249Z,99.99
2019-05-22T01:06:18.222Z,99.99
2019-05-22T01:07:18.228Z,99.99
2019-05-22T01:08:18.213Z,99.99
2019-05-22T01:09:18.187Z,99.99
2019-05-22T01:10:18.258Z,99.99
2019-05-22T01:11:18.129Z,99.99
2019-05-22T01:12:18.114Z,99.99
2019-05-22T01:13:18.094Z,99.99
2019-05-22T01:14:18.097Z,99.99
2019-05-22T01:15:18.076Z,99.99
2019-05-22T01:16:18.211Z,99.99
2019-05-22T01:17:18.024Z,99.99
2019-05-22T01:18:18.017Z,99.99
2019-05-22T01:19:17.988Z,99.99
2019-05-22T01:20:17.967Z,99.99
2019-05-22T01:21:17.959Z,99.99
2019-05-22T01:22:18.112Z,99.99
2019-05-22T01:23:17.914Z,99.99
2019-05-22T01:24:17.890Z,99.99
2019-05-22T01:25:17.894Z,99.99
2019-05-22T01:26:17.994Z,99.99
2019-05-22T01:27:17.837Z,99.99
2019-05-22T01:28:17.843Z,99.99
2019-05-22T01:29:17.856Z,99.99
2019-05-22T01:30:17.783Z,99.99
2019-05-22T01:31:17.776Z,99.99
2019-05-22T01:32:17.888Z,99.99
2019-05-22T01:33:17.726Z,99.99
2019-05-22T01:34:17.807Z,99.99
2019-05-22T01:35:17.691Z,99.99
2019-05-22T01:36:17.700Z,99.99
2019-05-22T01:37:17.659Z,99.99
2019-05-22T01:38:17.684Z,99.99
2019-05-22T01:39:17.617Z,99.99
2019-05-22T01:40:17.601Z,99.99
2019-05-22T01:41:17.579Z,99.99
2019-05-22T01:42:17.580Z,99.99
2019-05-22T01:43:17.549Z,99.99
2019-05-22T01:44:17.530Z,99.99
2019-05-22T01:45:17.510Z,99.99
2019-05-22T01:46:17.498Z,99.99
2019-05-22T01:47:17.495Z,99.99
2019-05-22T01:48:17.448Z,99.99
2019-05-22T01:49:17.449Z,99.99
2019-05-22T01:50:17.422Z,99.99
2019-05-22T01:51:17.401Z,99.99
2019-05-22T01:52:17.438Z,99.99
2019-05-22T01:53:17.357Z,99.99
2019-05-22T01:54:17.344Z,99.99
2019-05-22T01:55:17.363Z,99.99
2019-05-22T01:56:17.319Z,99.99
2019-05-22T01:57:17.290Z,99.99
2019-05-22T01:58:17.276Z,99.99
2019-05-22T01:59:17.248Z,99.99
2019-05-22T02:00:17.232Z,99.99
2019-05-22T02:01:17.224Z,99.99
2019-05-22T02:02:17.198Z,99.99
2019-05-22T02:03:17.170Z,99.99
2019-05-22T02:04:17.157Z,99.99
2019-05-22T02:05:17.139Z,99.99
2019-05-22T02:06:17.137Z,99.99
2019-05-22T02:07:17.103Z,99.99
2019-05-22T02:08:17.080Z,99.99
2019-05-22T02:09:17.090Z,99.99
2019-05-22T02:10:17.039Z,99.99
2019-05-22T02:11:17.029Z,99.99
2019-05-22T02:12:17.018Z,99.99
2019-05-22T02:13:17.026Z,99.99
2019-05-22T02:14:17.008Z,99.99
2019-05-22T02:15:16.950Z,99.99
2019-05-22T02:16:16.940Z,99.99
2019-05-22T02:17:16.928Z,99.99
2019-05-22T02:18:16.927Z,99.99
2019-05-22T02:19:16.924Z,99.99
2019-05-22T02:20:16.889Z,99.99
2019-05-22T02:21:16.849Z,99.99
2019-05-22T02:22:16.845Z,99.99
2019-05-22T02:23:16.818Z,99.99
2019-05-22T02:24:16.786Z,99.99
2019-05-22T02:25:16.773Z,99.99
2019-05-22T02:26:16.746Z,99.99
2019-05-22T02:27:16.756Z,99.99
2019-05-22T02:28:16.714Z,99.99
2019-05-22T02:29:16.700Z,99.99
2019-05-22T02:30:16.679Z,99.99
2019-05-22T02:31:16.672Z,99.99
2019-05-22T02:32:16.654Z,99.99
2019-05-22T02:33:16.662Z,99.99
2019-05-22T02:34:16.618Z,99.99
2019-05-22T02:35:16.583Z,99.99
2019-05-22T02:36:16.564Z,99.99
2019-05-22T02:37:16.565Z,99.99
2019-05-22T02:38:16.557Z,99.99
2019-05-22T02:39:16.510Z,99.99
2019-05-22T02:40:16.500Z,99.99
2019-05-22T02:41:16.474Z,99.99
2019-05-22T02:42:16.495Z,99.99
2019-05-22T02:43:16.448Z,99.99
2019-05-22T02:44:16.438Z,99.99
2019-05-22T02:45:16.407Z,99.99
2019-05-22T02:46:16.378Z,99.99
2019-05-22T02:47:20.558Z,99.99
2019-05-22T02:48:16.348Z,99.99
2019-05-22T02:49:16.329Z,99.99
2019-05-22T02:50:16.329Z,99.99
2019-05-22T02:51:16.301Z,99.99
2019-05-22T02:52:16.275Z,99.99
2019-05-22T02:53:16.278Z,99.99
2019-05-22T02:54:16.238Z,99.99
2019-05-22T02:55:16.217Z,99.99
2019-05-22T02:56:16.195Z,99.99
2019-05-22T02:57:16.178Z,99.99
2019-05-22T02:58:16.182Z,99.99
2019-05-22T02:59:16.162Z,99.99
2019-05-22T03:00:16.121Z,99.99
2019-05-22T03:01:16.108Z,99.99
2019-05-22T03:02:16.084Z,99.99
2019-05-22T03:03:16.068Z,99.99
2019-05-22T03:04:16.045Z,99.99
2019-05-22T03:05:16.057Z,99.99
2019-05-22T03:06:16.012Z,99.99
2019-05-22T03:07:16.016Z,99.99
2019-05-22T03:08:15.983Z,99.99
2019-05-22T03:09:16.009Z,99.99
2019-05-22T03:10:15.947Z,99.99
2019-05-22T03:11:15.930Z,99.99
2019-05-22T03:12:15.936Z,99.99
2019-05-22T03:13:15.889Z,99.99
2019-05-22T03:14:15.870Z,99.99
2019-05-22T03:15:15.870Z,99.99
2019-05-22T03:16:15.833Z,99.99
2019-05-22T03:17:15.811Z,99.99
2019-05-22T03:18:15.791Z,99.99
2019-05-22T03:19:15.805Z,99.99
2019-05-22T03:20:15.754Z,99.99
2019-05-22T03:21:15.784Z,99.99
2019-05-22T03:22:15.712Z,99.99
2019-05-22T03:23:15.701Z,99.99
2019-05-22T03:24:15.676Z,99.99
2019-05-22T03:25:15.658Z,99.99
2019-05-22T03:26:15.649Z,99.99
2019-05-22T03:27:15.655Z,99.99
2019-05-22T03:28:15.603Z,99.99
2019-05-22T03:29:15.586Z,99.99
2019-05-22T03:30:15.571Z,99.99
2019-05-22T03:31:15.699Z,99.99
2019-05-22T03:32:15.534Z,99.99
2019-05-22T03:33:15.551Z,99.99
2019-05-22T03:34:15.505Z,99.99
2019-05-22T03:35:15.480Z,99.99
2019-05-22T03:36:15.472Z,99.99
2019-05-22T03:37:15.441Z,99.99
2019-05-22T03:38:15.418Z,99.99
2019-05-22T03:39:15.516Z,99.99
2019-05-22T03:40:15.378Z,99.99
2019-05-22T03:41:15.373Z,99.99
2019-05-22T03:42:15.357Z,99.99
2019-05-22T03:43:15.337Z,99.99
2019-05-22T03:44:15.307Z,99.99
2019-05-22T03:45:15.470Z,99.99
2019-05-22T03:46:15.291Z,99.99
2019-05-22T03:47:15.275Z,99.99
2019-05-22T03:48:15.237Z,99.99
2019-05-22T03:49:29.352Z,99.99
2019-05-22T03:50:15.189Z,99.99
2019-05-22T03:51:15.203Z,99.99
2019-05-22T03:52:15.183Z,99.99
2019-05-22T03:53:15.140Z,99.99
2019-05-22T03:54:15.121Z,99.99
2019-05-22T03:55:15.116Z,99.99
2019-05-22T03:56:15.100Z,99.99
2019-05-22T03:57:15.150Z,99.99
2019-05-22T03:58:15.052Z,99.99
2019-05-22T03:59:15.030Z,99.99
2019-05-22T04:00:15.033Z,99.99
2019-05-22T04:01:14.999Z,99.99
2019-05-22T04:02:14.972Z,99.99
2019-05-22T04:03:14.954Z,99.99
2019-05-22T04:04:14.931Z,99.99
2019-05-22T04:05:14.918Z,99.99
2019-05-22T04:06:14.924Z,99.99
2019-05-22T04:07:14.885Z,99.99
2019-05-22T04:08:14.874Z,99.99
2019-05-22T04:09:14.844Z,99.99
2019-05-22T04:10:14.836Z,99.99
2019-05-22T04:11:14.836Z,99.99
2019-05-22T04:12:14.785Z,99.99
2019-05-22T04:13:14.772Z,99.99
2019-05-22T04:14:14.772Z,99.99
2019-05-22T04:15:14.766Z,99.99
2019-05-22T04:16:14.725Z,99.99
2019-05-22T04:17:14.699Z,99.99
2019-05-22T04:18:14.678Z,99.99
2019-05-22T04:19:14.661Z,99.99
2019-05-22T04:20:14.641Z,99.99
2019-05-22T04:21:14.645Z,99.99
2019-05-22T04:22:14.633Z,99.99
2019-05-22T04:23:14.592Z,99.99
2019-05-22T04:24:14.565Z,99.99
2019-05-22T04:25:14.563Z,99.99
2019-05-22T04:26:14.530Z,99.99
2019-05-22T04:27:14.534Z,99.99
2019-05-22T04:28:14.498Z,99.99
2019-05-22T04:29:14.472Z,99.99
2019-05-22T04:30:14.478Z,99.99
2019-05-22T04:31:14.433Z,99.99
2019-05-22T04:32:14.420Z,99.99
2019-05-22T04:33:14.395Z,99.99
2019-05-22T04:34:14.387Z,99.99
2019-05-22T04:35:14.387Z,99.99
2019-05-22T04:36:14.350Z,99.99
2019-05-22T04:37:14.345Z,99.99
2019-05-22T04:38:14.317Z,99.99
2019-05-22T04:39:14.300Z,99.99
2019-05-22T04:40:14.269Z,99.99
2019-05-22T04:41:14.264Z,99.99
2019-05-22T04:42:14.237Z,99.99
2019-05-22T04:43:14.222Z,99.99
2019-05-22T04:44:14.194Z,99.99
2019-05-22T04:45:14.175Z,99.99
2019-05-22T04:46:14.163Z,99.99
2019-05-22T04:47:14.158Z,99.99
2019-05-22T04:48:14.128Z,99.99
2019-05-22T04:49:14.113Z,99.99
2019-05-22T04:50:14.090Z,99.99
2019-05-22T04:51:14.083Z,99.99
2019-05-22T04:52:14.046Z,99.99
2019-05-22T04:53:14.031Z,99.99
2019-05-22T04:54:14.008Z,99.99
2019-05-22T04:55:13.996Z,99.99
2019-05-22T04:56:14.000Z,99.99
2019-05-22T04:57:13.957Z,99.99
2019-05-22T04:58:13.945Z,99.99
2019-05-22T04:59:13.915Z,99.99
2019-05-22T05:00:13.896Z,99.99
2019-05-22T05:01:13.883Z,99.99
2019-05-22T05:02:13.905Z,99.99
2019-05-22T05:03:13.845Z,99.99
2019-05-22T05:04:13.825Z,99.99
2019-05-22T05:05:13.837Z,99.99
2019-05-22T05:06:13.784Z,99.99
2019-05-22T05:07:13.774Z,99.99
2019-05-22T05:08:13.753Z,99.99
2019-05-22T05:09:13.758Z,99.99
2019-05-22T05:10:13.713Z,99.99
2019-05-22T05:11:13.693Z,99.99
2019-05-22T05:12:13.672Z,99.99
2019-05-22T05:13:13.655Z,99.99
2019-05-22T05:14:13.677Z,99.99
2019-05-22T05:15:13.645Z,99.99
2019-05-22T05:16:13.604Z,99.99
2019-05-22T05:17:13.578Z,99.99
2019-05-22T05:18:13.564Z,99.99
2019-05-22T05:19:13.546Z,99.99
2019-05-22T05:20:22.078Z,99.99
2019-05-22T05:21:13.508Z,99.99
2019-05-22T05:22:13.520Z,99.99
2019-05-22T05:23:13.470Z,99.99
2019-05-22T05:24:13.462Z,99.99
2019-05-22T05:25:13.450Z,99.99
2019-05-22T05:26:13.418Z,99.99
2019-05-22T05:27:13.400Z,99.99
2019-05-22T05:28:13.396Z,99.99
2019-05-22T05:29:13.367Z,99.99
2019-05-22T05:30:13.342Z,99.99
2019-05-22T05:31:13.325Z,99.99
2019-05-22T05:32:13.301Z,99.99
2019-05-22T05:33:13.294Z,99.99
2019-05-22T05:34:13.292Z,99.99
2019-05-22T05:35:13.261Z,99.99
2019-05-22T05:36:13.232Z,99.99
2019-05-22T05:37:13.210Z,99.99
2019-05-22T05:38:13.203Z,99.99
2019-05-22T05:39:13.173Z,99.99
2019-05-22T05:40:13.187Z,99.99
2019-05-22T05:41:13.144Z,99.99
2019-05-22T05:42:13.119Z,99.99
2019-05-22T05:43:13.096Z,99.99
2019-05-22T05:44:13.086Z,99.99
2019-05-22T05:45:13.806Z,99.99
2019-05-22T05:46:13.045Z,99.99
2019-05-22T05:47:13.026Z,99.99
2019-05-22T05:48:13.012Z,99.99
2019-05-22T05:49:12.991Z,99.99
2019-05-22T05:50:13.002Z,99.99
2019-05-22T05:51:12.976Z,99.99
2019-05-22T05:52:12.937Z,99.99
2019-05-22T05:53:12.916Z,99.99
2019-05-22T05:54:12.909Z,99.99
2019-05-22T05:55:12.886Z,99.99
2019-05-22T05:56:12.865Z,99.99
2019-05-22T05:57:12.882Z,99.99
2019-05-22T05:58:12.835Z,99.99
2019-05-22T05:59:12.804Z,99.99
2019-05-22T06:00:12.787Z,99.99
2019-05-22T06:01:12.777Z,99.99
2019-05-22T06:02:12.788Z,99.99
2019-05-22T06:03:12.733Z,99.99
2019-05-22T06:04:12.740Z,99.99
2019-05-22T06:05:12.697Z,99.99
2019-05-22T06:06:12.733Z,99.99
2019-05-22T06:07:12.656Z,99.99
2019-05-22T06:08:12.668Z,99.99
2019-05-22T06:09:12.624Z,99.99
2019-05-22T06:10:12.617Z,99.99
2019-05-22T06:11:12.588Z,99.99
2019-05-22T06:12:12.631Z,99.99
2019-05-22T06:13:12.544Z,99.99
2019-05-22T06:14:12.562Z,99.99
2019-05-22T06:15:12.528Z,99.99
2019-05-22T06:16:12.504Z,99.99
2019-05-22T06:17:12.488Z,99.99
2019-05-22T06:18:12.476Z,99.99
2019-05-22T06:19:12.448Z,99.99
2019-05-22T06:20:12.505Z,99.99
2019-05-22T06:21:12.418Z,99.99
2019-05-22T06:22:12.424Z,99.99
2019-05-22T06:23:12.403Z,99.99
2019-05-22T06:24:12.366Z,99.99
2019-05-22T06:25:12.326Z,99.99
2019-05-22T06:26:12.321Z,99.99
2019-05-22T06:27:12.296Z,99.99
2019-05-22T06:28:12.373Z,99.99
2019-05-22T06:29:12.280Z,99.99
2019-05-22T06:30:12.234Z,99.99
2019-05-22T06:31:12.215Z,99.99
2019-05-22T06:32:12.202Z,99.99
2019-05-22T06:33:12.181Z,99.99
2019-05-22T06:34:12.281Z,99.99
2019-05-22T06:35:12.176Z,99.99
2019-05-22T06:36:12.120Z,99.99
2019-05-22T06:37:12.104Z,99.99
2019-05-22T06:38:12.088Z,99.99
2019-05-22T06:39:12.069Z,99.99
2019-05-22T06:40:12.082Z,99.99
2019-05-22T06:41:12.037Z,99.99
2019-05-22T06:42:12.151Z,99.99
2019-05-22T06:43:12.011Z,99.99
2019-05-22T06:44:12.010Z,99.99
2019-05-22T06:45:11.957Z,99.99
2019-05-22T06:46:11.947Z,99.99
2019-05-22T06:47:11.942Z,99.99
2019-05-22T06:48:11.929Z,99.99
2019-05-22T06:49:11.890Z,99.99
2019-05-22T06:50:11.887Z,99.99
2019-05-22T06:51:19.314Z,99.99
2019-05-22T06:52:11.836Z,99.99
2019-05-22T06:53:11.822Z,99.99
2019-05-22T06:54:11.893Z,99.99
2019-05-22T06:55:11.795Z,99.99
2019-05-22T06:56:11.761Z,99.99
2019-05-22T06:57:11.745Z,99.99
2019-05-22T06:58:11.721Z,99.99
2019-05-22T06:59:11.710Z,99.99
2019-05-22T07:00:14.485Z,99.99
2019-05-22T07:01:11.666Z,99.99
2019-05-22T07:02:11.694Z,99.99
2019-05-22T07:03:11.641Z,99.99
2019-05-22T07:04:11.619Z,99.99
2019-05-22T07:05:11.607Z,99.99
2019-05-22T07:06:11.605Z,99.99
2019-05-22T07:07:12.171Z,99.99
2019-05-22T07:08:11.550Z,99.99
2019-05-22T07:09:11.527Z,99.99
2019-05-22T07:10:11.549Z,99.99
2019-05-22T07:11:11.529Z,99.99
2019-05-22T07:12:11.470Z,99.99
2019-05-22T07:13:11.458Z,99.99
2019-05-22T07:14:11.435Z,99.99
2019-05-22T07:15:11.433Z,99.99
2019-05-22T07:16:11.396Z,99.99
2019-05-22T07:17:11.405Z,99.99
2019-05-22T07:18:12.719Z,99.99
2019-05-22T07:19:11.343Z,99.99
2019-05-22T07:20:11.440Z,99.99
2019-05-22T07:21:11.337Z,99.99
2019-05-22T07:22:11.286Z,99.99
2019-05-22T07:23:11.288Z,99.99
2019-05-22T07:24:11.269Z,99.99
2019-05-22T07:25:11.240Z,99.99
2019-05-22T07:26:11.225Z,99.99
2019-05-22T07:27:11.218Z,99.99
2019-05-22T07:28:11.194Z,99.99
2019-05-22T07:29:11.162Z,99.99
2019-05-22T07:30:11.147Z,99.99
2019-05-22T07:31:11.127Z,99.99
2019-05-22T07:32:11.140Z,99.99
2019-05-22T07:33:11.114Z,99.99
2019-05-22T07:34:11.076Z,99.99
2019-05-22T07:35:11.056Z,99.99
2019-05-22T07:36:16.155Z,99.99
2019-05-22T07:37:11.016Z,99.99
2019-05-22T07:38:11.037Z,99.99
2019-05-22T07:39:10.988Z,99.99
2019-05-22T07:40:10.963Z,99.99
2019-05-22T07:41:10.955Z,99.99
2019-05-22T07:42:10.928Z,99.99
2019-05-22T07:43:10.916Z,99.99
2019-05-22T07:44:10.922Z,99.99
2019-05-22T07:45:10.884Z,99.99
2019-05-22T07:46:10.866Z,99.99
2019-05-22T07:47:10.839Z,99.99
2019-05-22T07:48:11.046Z,99.99
2019-05-22T07:49:10.804Z,99.99
2019-05-22T07:50:10.813Z,99.99
2019-05-22T07:51:10.776Z,99.99
2019-05-22T07:52:10.765Z,99.99
2019-05-22T07:53:10.737Z,99.99
2019-05-22T07:54:10.718Z,99.99
2019-05-22T07:55:10.716Z,99.99
2019-05-22T07:56:10.705Z,99.99
2019-05-22T07:57:10.686Z,99.99
2019-05-22T07:58:10.645Z,99.99
2019-05-22T07:59:10.635Z,99.99
2019-05-22T08:00:10.608Z,99.99
2019-05-22T08:01:10.592Z,99.99
2019-05-22T08:02:10.636Z,99.99
2019-05-22T08:03:10.564Z,99.99
2019-05-22T08:04:10.547Z,99.99
2019-05-22T08:05:10.523Z,99.99
2019-05-22T08:06:10.511Z,99.99
2019-05-22T08:07:10.486Z,99.99
2019-05-22T08:08:10.510Z,99.99
2019-05-22T08:09:10.460Z,99.99
2019-05-22T08:10:10.438Z,99.99
2019-05-22T08:11:10.420Z,99.99
2019-05-22T08:12:10.408Z,99.99
2019-05-22T08:13:10.435Z,99.99
2019-05-22T08:14:10.386Z,99.48
2019-05-22T08:15:10.352Z,99.99
2019-05-22T08:16:10.334Z,99.99
2019-05-22T08:17:10.332Z,99.90
2019-05-22T08:18:10.315Z,98.95
2019-05-22T08:19:10.289Z,98.95
2019-05-22T08:20:10.265Z,98.28
2019-05-22T08:21:10.280Z,98.66
2019-05-22T08:22:10.274Z,99.52
2019-05-22T08:23:10.213Z,99.71
2019-05-22T08:24:10.385Z,99.99
2019-05-22T08:25:10.189Z,98.66
2019-05-22T08:26:10.173Z,97.13
2019-05-22T08:27:10.177Z,98.09
2019-05-22T08:28:10.154Z,98.57
2019-05-22T08:29:10.252Z,98.09
2019-05-22T08:30:10.100Z,98.85
2019-05-22T08:31:10.079Z,98.09
2019-05-22T08:32:10.070Z,99.81
2019-05-22T08:33:10.063Z,99.99
2019-05-22T08:34:10.077Z,99.99
2019-05-22T08:35:10.022Z,99.10
2019-05-22T08:36:10.019Z,98.14
2019-05-22T08:37:09.989Z,99.76
2019-05-22T08:38:09.975Z,99.67
2019-05-22T08:39:10.020Z,98.04
2019-05-22T08:40:09.936Z,97.95
2019-05-22T08:41:09.950Z,97.37
2019-05-22T08:42:09.898Z,97.75
2019-05-22T08:43:09.891Z,96.84
2019-05-22T08:44:16.694Z,95.03
2019-05-22T08:45:09.850Z,95.22
2019-05-22T08:46:09.841Z,95.22
2019-05-22T08:47:09.845Z,94.50
2019-05-22T08:48:09.808Z,94.50
2019-05-22T08:49:09.787Z,94.60
2019-05-22T08:50:09.771Z,94.45
2019-05-22T08:51:09.752Z,95.12
2019-05-22T08:52:22.430Z,95.12
2019-05-22T08:53:09.746Z,94.70
2019-05-22T08:54:09.704Z,95.36
2019-05-22T08:55:09.703Z,96.03
2019-05-22T08:56:09.670Z,95.46
2019-05-22T08:57:09.680Z,94.70
2019-05-22T08:58:09.655Z,92.88
2019-05-22T08:59:19.485Z,92.88
2019-05-22T09:00:12.392Z,95.65
2019-05-22T09:01:09.607Z,96.27
2019-05-22T09:02:09.585Z,94.36
2019-05-22T09:03:09.702Z,90.67
2019-05-22T09:04:09.545Z,92.82
2019-05-22T09:05:09.525Z,92.73
2019-05-22T09:06:09.581Z,90.72
2019-05-22T09:07:09.500Z,87.80
2019-05-22T09:08:09.486Z,88.32
2019-05-22T09:09:09.470Z,88.65
2019-05-22T09:10:09.447Z,89.23
2019-05-22T09:11:09.456Z,87.65
2019-05-22T09:12:09.460Z,87.60
2019-05-22T09:13:09.403Z,87.79
2019-05-22T09:14:09.381Z,86.92
2019-05-22T09:15:09.381Z,86.34
2019-05-22T09:16:09.354Z,85.33
2019-05-22T09:17:09.443Z,82.68
2019-05-22T09:18:09.322Z,79.47
2019-05-22T09:19:09.313Z,78.61
2019-05-22T09:20:09.317Z,79.76
2019-05-22T09:21:09.274Z,82.31
2019-05-22T09:22:09.595Z,83.14
2019-05-22T09:23:09.291Z,84.15
2019-05-22T09:24:09.238Z,84.53
2019-05-22T09:25:09.459Z,85.88
2019-05-22T09:26:09.205Z,85.28
2019-05-22T09:27:09.195Z,83.18
2019-05-22T09:28:09.173Z,85.38
2019-05-22T09:29:09.181Z,83.98
2019-05-22T09:30:09.153Z,83.47
2019-05-22T09:31:09.159Z,82.08
2019-05-22T09:32:09.197Z,83.09
2019-05-22T09:33:09.105Z,83.48
2019-05-22T09:34:09.092Z,85.93
2019-05-22T09:35:09.083Z,84.97
2019-05-22T09:36:09.069Z,85.97
2019-05-22T09:37:09.078Z,86.49
2019-05-22T09:38:09.047Z,85.96
2019-05-22T09:39:09.038Z,83.94
2019-05-22T09:40:09.020Z,83.47
2019-05-22T09:41:09.028Z,81.87
2019-05-22T09:42:08.996Z,81.72
2019-05-22T09:43:08.976Z,80.09
2019-05-22T09:44:08.993Z,79.52
2019-05-22T09:45:08.993Z,79.71
2019-05-22T09:46:08.944Z,80.04
2019-05-22T09:47:08.936Z,79.36
2019-05-22T09:48:08.929Z,79.94
2019-05-22T09:49:08.931Z,79.61
2019-05-22T09:50:08.911Z,78.75
2019-05-22T09:51:08.947Z,80.66
2019-05-22T09:52:08.873Z,79.96
2019-05-22T09:53:08.876Z,79.82
2019-05-22T09:54:08.863Z,81.60
2019-05-22T09:55:08.866Z,82.04
2019-05-22T09:56:08.876Z,83.19
2019-05-22T09:57:08.844Z,85.05
2019-05-22T09:58:08.842Z,83.23
2019-05-22T09:59:08.801Z,84.52
2019-05-22T10:00:08.790Z,84.19
2019-05-22T10:01:11.625Z,82.98
2019-05-22T10:02:08.771Z,82.51
2019-05-22T10:03:08.802Z,83.31
2019-05-22T10:04:08.738Z,82.35
2019-05-22T10:05:08.732Z,80.09
2019-05-22T10:06:08.892Z,77.73
2019-05-22T10:07:08.698Z,79.46
2019-05-22T10:08:08.694Z,78.78
2019-05-22T10:09:08.700Z,77.92
2019-05-22T10:10:08.671Z,76.23
2019-05-22T10:11:08.654Z,76.67
2019-05-22T10:12:08.643Z,79.13
2019-05-22T10:13:08.712Z,78.84
2019-05-22T10:14:08.627Z,78.32
2019-05-22T10:15:08.789Z,79.28
2019-05-22T10:16:08.595Z,81.20
2019-05-22T10:17:08.618Z,81.87
2019-05-22T10:18:08.580Z,80.38
2019-05-22T10:19:08.561Z,82.30
2019-05-22T10:20:08.548Z,81.86
2019-05-22T10:21:08.528Z,78.55
2019-05-22T10:22:08.517Z,76.92
2019-05-22T10:23:15.455Z,76.59
2019-05-22T10:24:08.519Z,80.38
2019-05-22T10:25:15.513Z,81.34
2019-05-22T10:26:08.469Z,78.94
2019-05-22T10:27:08.455Z,78.84
2019-05-22T10:28:08.448Z,79.52
2019-05-22T10:29:08.429Z,75.77
2019-05-22T10:30:08.459Z,76.02
2019-05-22T10:31:09.281Z,79.32
2019-05-22T10:32:08.400Z,81.57
2019-05-22T10:33:08.418Z,81.28
2019-05-22T10:34:08.373Z,79.07
2019-05-22T10:35:08.355Z,77.73
2019-05-22T10:36:08.369Z,78.94
2019-05-22T10:37:08.350Z,80.22
2019-05-22T10:38:08.325Z,78.69
2019-05-22T10:39:08.306Z,78.21
2019-05-22T10:40:08.296Z,77.69
2019-05-22T10:41:08.280Z,78.94
2019-05-22T10:42:08.292Z,81.34
2019-05-22T10:43:08.257Z,80.80
2019-05-22T10:44:08.250Z,79.21
2019-05-22T10:45:08.226Z,79.30
2019-05-22T10:46:08.364Z,79.82
2019-05-22T10:47:08.229Z,76.75
2019-05-22T10:48:08.192Z,75.98
2019-05-22T10:49:08.192Z,77.13
2019-05-22T10:50:08.174Z,76.94
2019-05-22T10:51:08.156Z,77.17
2019-05-22T10:52:08.140Z,75.79
2019-05-22T10:53:08.757Z,75.46
2019-05-22T10:54:08.118Z,75.42
2019-05-22T10:55:08.111Z,75.77
2019-05-22T10:56:08.141Z,76.73
2019-05-22T10:57:08.095Z,77.50
2019-05-22T10:58:08.187Z,76.15
2019-05-22T10:59:08.054Z,77.26
2019-05-22T11:00:08.038Z,78.61
2019-05-22T11:01:08.025Z,80.15
2019-05-22T11:02:08.022Z,77.94
2019-05-22T11:03:08.019Z,78.99
2019-05-22T11:04:08.005Z,82.49
2019-05-22T11:05:07.998Z,82.34
2019-05-22T11:06:08.168Z,79.79
2019-05-22T11:07:07.951Z,78.63
2019-05-22T11:08:07.935Z,76.84
2019-05-22T11:09:07.926Z,75.63
2019-05-22T11:10:07.907Z,73.71
2019-05-22T11:11:07.923Z,72.97
2019-05-22T11:12:07.884Z,71.01
2019-05-22T11:13:07.870Z,74.09
2019-05-22T11:14:09.630Z,75.92
2019-05-22T11:15:07.865Z,74.09
2019-05-22T11:16:07.839Z,74.73
2019-05-22T11:17:07.819Z,73.35
2019-05-22T11:18:07.803Z,76.90
2019-05-22T11:19:07.790Z,79.21
2019-05-22T11:20:07.784Z,76.56
2019-05-22T11:21:07.787Z,76.65
2019-05-22T11:22:07.755Z,76.07
2019-05-22T11:23:07.746Z,74.98
2019-05-22T11:24:07.733Z,74.79
2019-05-22T11:25:07.714Z,75.56
2019-05-22T11:26:07.714Z,75.04
2019-05-22T11:27:07.731Z,74.79
2019-05-22T11:28:07.684Z,77.29
2019-05-22T11:29:07.679Z,75.98
2019-05-22T11:30:07.660Z,74.63
2019-05-22T11:31:07.646Z,71.71
2019-05-22T11:32:07.631Z,75.98
2019-05-22T11:33:07.645Z,75.49
2019-05-22T11:34:07.604Z,74.02
2019-05-22T11:35:07.588Z,75.94
2019-05-22T11:36:07.582Z,76.19
2019-05-22T11:37:07.559Z,78.59
2019-05-22T11:38:07.578Z,77.96
2019-05-22T11:39:07.565Z,79.25
2019-05-22T11:40:07.527Z,75.88
2019-05-22T11:41:07.530Z,74.25
2019-05-22T11:42:07.521Z,73.99
2019-05-22T11:43:07.489Z,74.48
2019-05-22T11:44:07.571Z,76.63
2019-05-22T11:45:07.475Z,75.32
2019-05-22T11:46:07.444Z,71.76
2019-05-22T11:47:07.431Z,71.31
2019-05-22T11:48:07.519Z,70.73
2019-05-22T11:49:07.412Z,71.31
2019-05-22T11:50:07.571Z,70.83
2019-05-22T11:51:07.408Z,70.73
2019-05-22T11:52:07.378Z,68.71
2019-05-22T11:53:07.365Z,67.46
2019-05-22T11:54:09.657Z,70.64
2019-05-22T11:55:07.402Z,67.81
2019-05-22T11:56:07.489Z,70.44
2019-05-22T11:57:07.325Z,67.16
2019-05-22T11:58:07.298Z,67.26
2019-05-22T11:59:07.290Z,67.36
2019-05-22T12:00:09.349Z,67.65
2019-05-22T12:01:07.286Z,69.29
2019-05-22T12:02:07.409Z,68.23
2019-05-22T12:03:07.282Z,65.43
2019-05-22T12:04:07.307Z,67.16
2019-05-22T12:05:07.276Z,66.49
2019-05-22T12:06:07.302Z,66.69
2019-05-22T12:07:07.230Z,67.42
2019-05-22T12:08:07.238Z,70.50
2019-05-22T12:09:07.200Z,72.91
2019-05-22T12:10:07.243Z,70.18
2019-05-22T12:11:07.258Z,70.66
2019-05-22T12:12:07.151Z,72.97
2019-05-22T12:13:07.122Z,74.32
2019-05-22T12:14:07.254Z,73.01
2019-05-22T12:15:07.095Z,70.41
2019-05-22T12:16:07.089Z,66.94
2019-05-22T12:17:07.082Z,67.90
2019-05-22T12:18:07.086Z,68.42
2019-05-22T12:19:07.050Z,67.46
2019-05-22T12:20:07.147Z,70.25
2019-05-22T12:21:07.028Z,67.26
2019-05-22T12:22:07.011Z,65.75
2019-05-22T12:23:07.029Z,67.00
2019-05-22T12:24:07.116Z,65.17
2019-05-22T12:25:06.968Z,64.31
2019-05-22T12:26:06.961Z,63.54
2019-05-22T12:27:06.959Z,63.95
2019-05-22T12:28:06.940Z,64.05
2019-05-22T12:29:06.924Z,65.14
2019-05-22T12:30:06.929Z,63.76
2019-05-22T12:31:06.945Z,64.72
2019-05-22T12:32:06.905Z,62.60
2019-05-22T12:33:13.345Z,64.31
2019-05-22T12:34:06.920Z,68.55
2019-05-22T12:35:06.863Z,64.50
2019-05-22T12:36:06.841Z,65.91
2019-05-22T12:37:06.879Z,64.66
2019-05-22T12:38:06.822Z,69.42
2019-05-22T12:39:06.814Z,66.82
2019-05-22T12:40:06.824Z,67.33
2019-05-22T12:41:06.789Z,65.88
2019-05-22T12:42:06.778Z,64.72
2019-05-22T12:43:06.782Z,63.06
2019-05-22T12:44:06.768Z,64.02
2019-05-22T12:45:06.734Z,64.79
2019-05-22T12:46:06.729Z,64.47
2019-05-22T12:47:06.721Z,64.86
2019-05-22T12:48:06.726Z,68.45
2019-05-22T12:49:09.038Z,66.11
2019-05-22T12:50:06.679Z,64.69
2019-05-22T12:51:06.660Z,66.24
2019-05-22T12:52:06.703Z,64.02